To NAV CANADA Home Page Login to a new session Search on AWWS site Feedback and Comments Disclaimer Vers la page française équivalente Tips FAQ What's new on the site To the Forecasts and Observations / NOTAM section To "File a Flight Plan" website Publications and other links Update of the User's profile FIC Telephone Numbers My Weather Data Folder Route Weather Data Regional Weather Data Local Weather Data To the Forecasts and Observations / NOTAM section
Request Generated 05/26/2016 at 12:25:26 UTC . Weather information available at that time is displayed.

METAR/TAF

BRANDON/BRANDON MUNICIPALITY/MB    

SPECI CYBR 261219Z 36013G19KT 15SM SCT040 OVC093 13/12 A2976 RMK
SC3AC5 SLP086 DENSITY ALT 1600FT=
METAR CYBR 261200Z 35015KT 15SM -RA SCT039 OVC100 13/11 A2976 RMK
SC4AC4 SLP086 DENSITY ALT 1500FT=
SPECI CYBR 261133Z 36008KT 15SM -RA SCT039 OVC082 12/11 A2976 RMK
SC3AC5 SLP086 DENSITY ALT 1500FT=
METAR CYBR 261100Z 36009KT 15SM SCT043 OVC083 12/11 A2975 RMK SC4AC4
SLP084 DENSITY ALT 1500FT=
METAR CYBR 261000Z 01005KT 15SM SCT050 OVC076 12/11 A2976 RMK SC3AC5
SLP086 DENSITY ALT 1400FT=

TAF CYBR 261138Z 2612/2624 36008KT P6SM FEW012 BKN060 TEMPO 2612/2614
4SM -SHRA BR SCT008 BKN012 OVC040
FM261400 33012KT P6SM -SHRA SCT006 OVC012 TEMPO 2614/2624 4SM
-SHRA BR BKN006 OVC012 PROB30 2614/2624 2SM TSRA BR BKN006
OVC012CB
RMK NXT FCST BY 261800Z=
Your time UTC time
Weather data provided by Environment Canada and NAV CANADA